createdAt,value
2019-01-06T00:01:28.994Z,5.62
2019-01-06T00:04:18.231Z,5.55
2019-01-06T00:06:47.768Z,5.55
2019-01-06T00:09:37.461Z,5.08
2019-01-06T00:12:24.822Z,7.62
2019-01-06T00:14:58.785Z,4.45
2019-01-06T00:17:42.033Z,4.97
2019-01-06T00:20:22.242Z,11.93
2019-01-06T00:22:53.643Z,4.78
2019-01-06T00:25:27.599Z,4.08
2019-01-06T00:28:01.567Z,6.42
2019-01-06T00:30:34.727Z,7.58
2019-01-06T00:33:10.208Z,4.10
2019-01-06T00:35:57.913Z,3.95
2019-01-06T00:41:22.229Z,4.00
2019-01-06T00:43:56.165Z,6.12
2019-01-06T00:46:39.528Z,7.33
2019-01-06T00:49:16.713Z,5.03
2019-01-06T00:51:52.252Z,4.83
2019-01-06T00:54:38.763Z,3.95
2019-01-06T00:57:11.066Z,2.90
2019-01-06T00:59:46.379Z,5.78
2019-01-06T01:02:23.617Z,4.60
2019-01-06T01:05:00.829Z,5.00
2019-01-06T01:07:37.825Z,6.80
2019-01-06T01:10:14.575Z,5.35
2019-01-06T01:13:02.105Z,4.53
2019-01-06T01:15:36.301Z,4.62
2019-01-06T01:18:22.871Z,5.00
2019-01-06T01:20:54.258Z,6.17
2019-01-06T01:23:38.973Z,7.05
2019-01-06T01:26:28.177Z,7.33
2019-01-06T01:28:57.714Z,5.75
2019-01-06T01:31:45.074Z,7.00
2019-01-06T01:34:28.924Z,3.80
2019-01-06T01:37:03.190Z,4.83
2019-01-06T01:39:37.129Z,5.95
2019-01-06T01:42:08.497Z,8.53
2019-01-06T01:44:42.793Z,7.62
2019-01-06T01:47:16.707Z,5.42
2019-01-06T01:49:48.331Z,3.87
2019-01-06T01:52:19.705Z,4.58
2019-01-06T01:55:00.246Z,6.75
2019-01-06T01:57:47.632Z,5.45
2019-01-06T02:00:22.171Z,6.67
2019-01-06T02:02:53.503Z,6.97
2019-01-06T02:05:27.688Z,6.67
2019-01-06T02:08:07.743Z,10.40
2019-01-06T02:10:51.326Z,7.17
2019-01-06T02:13:40.955Z,11.55
2019-01-06T02:16:27.378Z,5.25
2019-01-06T02:19:13.670Z,4.83
2019-01-06T02:21:45.113Z,5.75
2019-01-06T02:24:19.224Z,6.35
2019-01-06T02:26:51.312Z,7.95
2019-01-06T02:29:28.313Z,7.62
2019-01-06T02:31:57.839Z,10.25
2019-01-06T02:34:45.308Z,6.30
2019-01-06T02:37:33.023Z,9.70
2019-01-06T02:40:16.359Z,7.50
2019-01-06T02:42:47.791Z,12.53
2019-01-06T02:45:25.055Z,10.55
2019-01-06T02:48:08.355Z,9.85
2019-01-06T02:50:48.517Z,13.22
2019-01-06T02:53:22.691Z,10.30
2019-01-06T02:56:10.228Z,10.53
2019-01-06T02:58:44.326Z,10.32
2019-01-06T03:01:18.683Z,9.38
2019-01-06T03:03:50.487Z,9.50
2019-01-06T03:06:37.811Z,9.08
2019-01-06T03:09:18.680Z,17.27
2019-01-06T03:12:08.111Z,6.97
2019-01-06T03:14:48.413Z,9.43
2019-01-06T03:17:22.616Z,14.20
2019-01-06T03:20:02.940Z,9.35
2019-01-06T03:22:38.334Z,10.45
2019-01-06T03:25:25.729Z,15.93
2019-01-06T03:28:08.985Z,11.18
2019-01-06T03:30:56.805Z,8.45
2019-01-06T03:33:34.110Z,11.25
2019-01-06T03:36:06.150Z,8.08
2019-01-06T03:38:53.638Z,8.45
2019-01-06T03:41:27.643Z,7.90
2019-01-06T03:43:59.009Z,9.68
2019-01-06T03:46:46.460Z,11.53
2019-01-06T03:49:17.859Z,6.45
2019-01-06T03:52:05.007Z,8.33
2019-01-06T03:54:52.735Z,7.72
2019-01-06T03:57:40.000Z,8.98
2019-01-06T04:00:23.817Z,8.45
2019-01-06T04:02:55.187Z,7.25
2019-01-06T04:05:26.576Z,5.92
2019-01-06T04:08:03.895Z,6.40
2019-01-06T04:10:35.957Z,6.45
2019-01-06T04:13:13.677Z,5.80
2019-01-06T04:15:45.056Z,6.97
2019-01-06T04:18:32.609Z,5.47
2019-01-06T04:21:06.851Z,7.20
2019-01-06T04:23:41.045Z,5.08
2019-01-06T04:26:10.509Z,9.05
2019-01-06T04:28:56.932Z,6.47
2019-01-06T04:31:43.450Z,7.58
2019-01-06T04:34:20.450Z,5.58
2019-01-06T04:37:03.501Z,9.88
2019-01-06T04:39:33.006Z,5.03
2019-01-06T04:42:20.578Z,7.55
2019-01-06T04:45:07.938Z,7.90
2019-01-06T04:47:43.251Z,6.72
2019-01-06T04:50:14.654Z,6.50
2019-01-06T04:52:46.267Z,9.38
2019-01-06T04:55:17.626Z,8.55
2019-01-06T04:58:02.169Z,7.22
2019-01-06T05:00:49.777Z,5.37
2019-01-06T05:03:33.243Z,7.83
2019-01-06T05:06:16.397Z,6.05
2019-01-06T05:09:03.775Z,9.28
2019-01-06T05:11:35.135Z,7.78
2019-01-06T05:14:09.344Z,8.88
2019-01-06T05:16:55.528Z,7.80
2019-01-06T05:19:27.637Z,7.50
2019-01-06T05:22:09.107Z,11.95
2019-01-06T05:24:40.486Z,8.70
2019-01-06T05:27:11.878Z,7.03
2019-01-06T05:29:43.246Z,7.67
2019-01-06T05:32:20.512Z,8.78
2019-01-06T05:34:58.281Z,7.87
2019-01-06T05:37:32.713Z,8.63
2019-01-06T05:40:02.207Z,8.58
2019-01-06T05:42:33.587Z,6.78
2019-01-06T05:45:13.796Z,8.98
2019-01-06T05:47:43.321Z,6.83
2019-01-06T05:50:20.513Z,10.50
2019-01-06T05:53:07.909Z,7.87
2019-01-06T05:55:45.236Z,5.75
2019-01-06T05:58:19.162Z,8.63
2019-01-06T06:00:57.710Z,8.78
2019-01-06T06:03:35.061Z,9.18
2019-01-06T06:06:06.458Z,8.60
2019-01-06T06:08:37.828Z,8.53
2019-01-06T06:11:12.997Z,9.93
2019-01-06T06:14:00.400Z,7.85
2019-01-06T06:16:34.528Z,9.08
2019-01-06T06:19:21.998Z,7.45
2019-01-06T06:21:54.430Z,8.23
2019-01-06T06:24:41.762Z,7.72
2019-01-06T06:27:16.003Z,6.90
2019-01-06T06:30:02.807Z,8.03
2019-01-06T06:32:36.862Z,10.20
2019-01-06T06:35:11.080Z,8.68
2019-01-06T06:37:52.803Z,10.63
2019-01-06T06:40:24.168Z,7.10
2019-01-06T06:43:11.835Z,7.90
2019-01-06T06:45:59.610Z,7.10
2019-01-06T06:48:46.958Z,11.05
2019-01-06T06:51:16.454Z,10.35
2019-01-06T06:53:45.969Z,8.45
2019-01-06T06:56:17.572Z,7.95
2019-01-06T06:58:51.782Z,10.05
2019-01-06T07:01:41.992Z,13.28
2019-01-06T07:04:25.232Z,12.33
2019-01-06T07:06:59.170Z,7.97
2019-01-06T07:09:36.388Z,9.03
2019-01-06T07:12:16.633Z,9.58
2019-01-06T07:14:52.119Z,11.12
2019-01-06T07:18:06.994Z,11.78
2019-01-06T07:20:53.556Z,11.25
2019-01-06T07:23:24.916Z,10.55
2019-01-06T07:25:59.091Z,8.00
2019-01-06T07:28:36.077Z,10.38
2019-01-06T07:31:16.318Z,11.65
2019-01-06T07:33:47.688Z,8.78
2019-01-06T07:36:34.043Z,10.82
2019-01-06T07:39:17.219Z,8.88
2019-01-06T07:41:51.391Z,12.88
2019-01-06T07:44:28.673Z,13.43
2019-01-06T07:47:08.980Z,11.90
2019-01-06T07:49:40.633Z,10.98
2019-01-06T07:52:28.271Z,13.58
2019-01-06T07:55:11.751Z,12.70
2019-01-06T07:57:52.005Z,19.65
2019-01-06T08:00:29.450Z,21.07
2019-01-06T08:03:06.711Z,21.62
2019-01-06T08:05:38.188Z,10.58
2019-01-06T08:08:25.444Z,16.48
2019-01-06T08:11:02.595Z,13.55
2019-01-06T08:13:34.106Z,15.93
2019-01-06T08:16:06.349Z,9.85
2019-01-06T08:18:46.863Z,8.60
2019-01-06T08:21:21.108Z,10.58
2019-01-06T08:24:08.848Z,13.18
2019-01-06T08:26:58.130Z,12.95
2019-01-06T08:29:45.750Z,12.85
2019-01-06T08:32:17.346Z,16.32
2019-01-06T08:34:46.874Z,16.17
2019-01-06T08:37:34.448Z,13.58
2019-01-06T08:40:22.400Z,12.25
2019-01-06T08:43:10.174Z,11.00
2019-01-06T08:45:57.720Z,12.40
2019-01-06T08:48:41.232Z,11.83
2019-01-06T08:51:13.415Z,14.98
2019-01-06T08:53:53.589Z,14.73
2019-01-06T08:56:27.693Z,16.00
2019-01-06T08:59:09.332Z,14.43
2019-01-06T09:01:38.838Z,20.15
2019-01-06T09:04:08.373Z,15.93
2019-01-06T09:06:55.951Z,18.45
2019-01-06T09:09:27.624Z,15.88
2019-01-06T09:11:59.910Z,19.57
2019-01-06T09:14:43.067Z,17.92
2019-01-06T09:17:20.558Z,21.23
2019-01-06T09:20:00.973Z,15.80
2019-01-06T09:22:44.126Z,18.45
2019-01-06T09:25:22.562Z,16.55
2019-01-06T09:28:00.944Z,18.25
2019-01-06T09:30:48.707Z,15.53
2019-01-06T09:33:35.182Z,14.90
2019-01-06T09:36:12.080Z,14.65
2019-01-06T09:38:55.403Z,17.30
2019-01-06T09:41:43.236Z,17.77
2019-01-06T09:44:12.730Z,16.45
2019-01-06T09:46:53.119Z,14.33
2019-01-06T09:49:39.553Z,20.62
2019-01-06T09:52:09.024Z,16.70
2019-01-06T09:54:56.635Z,22.65
2019-01-06T09:57:30.644Z,17.40
2019-01-06T10:00:07.918Z,15.65
2019-01-06T10:02:51.378Z,21.20
2019-01-06T10:05:25.748Z,9.95
2019-01-06T10:07:59.651Z,14.50
2019-01-06T10:10:44.271Z,8.13
2019-01-06T10:13:27.413Z,13.88
2019-01-06T10:16:04.731Z,9.33
2019-01-06T10:18:52.300Z,12.03
2019-01-06T10:21:39.144Z,11.50
2019-01-06T10:24:08.727Z,13.78
2019-01-06T10:26:40.092Z,12.80
2019-01-06T10:29:27.005Z,11.48
2019-01-06T10:32:01.339Z,12.28
2019-01-06T10:34:48.785Z,12.45
2019-01-06T10:37:20.172Z,13.15
2019-01-06T10:39:57.151Z,9.90
2019-01-06T10:42:34.132Z,11.53
2019-01-06T10:45:17.334Z,11.33
2019-01-06T10:47:48.800Z,11.75
2019-01-06T10:50:36.089Z,11.55
2019-01-06T10:53:23.619Z,11.68
2019-01-06T10:56:04.200Z,11.28
2019-01-06T10:58:38.383Z,8.65
2019-01-06T11:01:12.729Z,12.93
2019-01-06T11:03:44.115Z,14.33
2019-01-06T11:06:32.454Z,10.65
2019-01-06T11:09:06.763Z,13.03
2019-01-06T11:11:54.252Z,10.20
2019-01-06T11:14:31.538Z,10.80
2019-01-06T11:17:02.947Z,12.70
2019-01-06T11:19:46.273Z,14.75
2019-01-06T11:22:29.679Z,17.17
2019-01-06T11:25:05.223Z,14.65
2019-01-06T11:27:36.701Z,15.48
2019-01-06T11:30:26.878Z,11.75
2019-01-06T11:33:14.184Z,12.18
2019-01-06T11:36:01.837Z,12.60
2019-01-06T11:38:48.148Z,18.15
2019-01-06T11:41:25.321Z,17.20
2019-01-06T11:43:59.585Z,15.80
2019-01-06T11:46:46.977Z,11.83
2019-01-06T11:49:18.443Z,13.10
2019-01-06T11:52:04.730Z,15.55
2019-01-06T11:54:36.888Z,13.05
2019-01-06T11:57:24.706Z,14.23
2019-01-06T12:00:04.766Z,17.73
2019-01-06T12:02:39.111Z,17.12
2019-01-06T12:05:07.422Z,12.95
2019-01-06T12:07:44.736Z,13.48
2019-01-06T12:10:34.539Z,10.77
2019-01-06T12:13:19.017Z,11.83
2019-01-06T12:15:50.441Z,13.78
2019-01-06T12:18:37.772Z,13.30
2019-01-06T12:21:25.130Z,14.40
2019-01-06T12:24:12.630Z,13.00
2019-01-06T12:26:44.022Z,10.20
2019-01-06T12:29:31.694Z,10.33
2019-01-06T12:32:03.068Z,14.77
2019-01-06T12:34:35.239Z,9.40
2019-01-06T12:37:21.563Z,10.63
2019-01-06T12:40:03.156Z,10.88
2019-01-06T12:42:40.132Z,13.03
2019-01-06T12:45:27.500Z,17.73
2019-01-06T12:48:17.087Z,16.40
2019-01-06T12:50:51.605Z,21.87
2019-01-06T12:53:25.685Z,20.45
2019-01-06T12:55:55.271Z,32.65
2019-01-06T12:58:29.546Z,23.73
2019-01-06T13:01:03.688Z,14.98
2019-01-06T13:03:51.227Z,19.10
2019-01-06T13:06:40.746Z,18.77
2019-01-06T13:09:27.785Z,20.33
2019-01-06T13:12:07.824Z,18.15
2019-01-06T13:14:55.202Z,17.53
2019-01-06T13:17:38.787Z,22.70
2019-01-06T13:20:16.105Z,16.95
2019-01-06T13:22:57.923Z,23.25
2019-01-06T13:25:41.028Z,21.75
2019-01-06T13:28:27.669Z,14.50
2019-01-06T13:31:02.876Z,19.80
2019-01-06T13:33:50.704Z,11.48
2019-01-06T13:36:37.049Z,17.43
2019-01-06T13:39:08.947Z,13.77
2019-01-06T13:41:40.342Z,15.27
2019-01-06T13:44:28.014Z,11.08
2019-01-06T13:47:08.559Z,14.85
2019-01-06T13:49:57.926Z,13.30
2019-01-06T13:52:33.557Z,22.83
2019-01-06T13:55:21.259Z,13.40
2019-01-06T13:57:55.368Z,15.15
2019-01-06T14:00:41.536Z,12.97
2019-01-06T14:03:24.909Z,13.48
2019-01-06T14:05:59.484Z,13.32
2019-01-06T14:08:31.888Z,12.28
2019-01-06T14:11:15.029Z,16.55
2019-01-06T14:14:02.506Z,13.10
2019-01-06T14:16:45.566Z,12.03
2019-01-06T14:19:33.470Z,15.08
2019-01-06T14:22:05.797Z,11.05
2019-01-06T14:24:53.573Z,10.05
2019-01-06T14:27:24.927Z,15.75
2019-01-06T14:29:56.270Z,13.68
2019-01-06T14:32:45.790Z,12.15
2019-01-06T14:35:19.837Z,9.55
2019-01-06T14:37:57.115Z,15.30
2019-01-06T14:40:34.124Z,11.00
2019-01-06T14:43:05.570Z,12.18
2019-01-06T14:45:48.017Z,12.85
2019-01-06T14:48:19.374Z,14.58
2019-01-06T14:51:05.971Z,13.03
2019-01-06T14:53:49.423Z,14.63
2019-01-06T14:56:29.459Z,12.20
2019-01-06T14:59:16.977Z,14.25
2019-01-06T15:01:57.007Z,14.60
2019-01-06T15:04:31.184Z,17.50
2019-01-06T15:07:20.485Z,13.00
2019-01-06T15:09:57.694Z,14.23
2019-01-06T15:12:45.007Z,13.35
2019-01-06T15:15:23.969Z,15.38
2019-01-06T15:18:07.336Z,15.38
2019-01-06T15:20:37.203Z,18.87
2019-01-06T15:23:24.449Z,13.85
2019-01-06T15:26:07.709Z,15.83
2019-01-06T15:28:39.147Z,14.53
2019-01-06T15:31:10.536Z,12.30
2019-01-06T15:33:41.877Z,21.55
2019-01-06T15:36:21.867Z,16.27
2019-01-06T15:38:53.222Z,14.15
2019-01-06T15:41:39.733Z,19.40
2019-01-06T15:44:27.327Z,12.85
2019-01-06T15:47:01.330Z,13.03
2019-01-06T15:49:44.868Z,16.85
2019-01-06T15:52:18.944Z,15.10
2019-01-06T15:54:56.153Z,16.05
2019-01-06T15:57:36.575Z,14.23
2019-01-06T16:00:08.797Z,15.28
2019-01-06T16:02:49.650Z,12.60
2019-01-06T16:05:37.435Z,16.55
2019-01-06T16:08:17.900Z,14.68
2019-01-06T16:11:07.498Z,16.35
2019-01-06T16:13:57.116Z,15.10
2019-01-06T16:16:34.536Z,16.42
2019-01-06T16:19:08.888Z,15.55
2019-01-06T16:21:56.310Z,11.68
2019-01-06T16:24:33.539Z,14.20
2019-01-06T16:27:13.613Z,17.20
2019-01-06T16:30:01.762Z,19.17
2019-01-06T16:32:33.867Z,16.65
2019-01-06T16:35:08.147Z,18.62
2019-01-06T16:37:37.768Z,13.40
2019-01-06T16:40:26.408Z,20.17
2019-01-06T16:42:57.820Z,19.10
2019-01-06T16:45:35.987Z,14.43
2019-01-06T16:48:23.346Z,14.58
2019-01-06T16:51:10.798Z,15.48
2019-01-06T16:53:42.167Z,18.37
2019-01-06T16:56:28.493Z,18.62
2019-01-06T16:59:08.691Z,15.90
2019-01-06T17:01:40.058Z,13.25
2019-01-06T17:04:27.166Z,15.00
2019-01-06T17:06:58.563Z,15.85
2019-01-06T17:09:45.997Z,14.03
2019-01-06T17:12:33.661Z,14.75
2019-01-06T17:15:07.963Z,15.03
2019-01-06T17:17:43.455Z,12.85
2019-01-06T17:20:30.046Z,20.52
2019-01-06T17:23:10.395Z,13.05
2019-01-06T17:25:41.751Z,15.23
2019-01-06T17:28:21.924Z,17.42
2019-01-06T17:31:09.473Z,16.70
2019-01-06T17:33:40.881Z,14.20
2019-01-06T17:36:13.812Z,12.58
2019-01-06T17:39:01.334Z,16.65
2019-01-06T17:41:48.736Z,14.70
2019-01-06T17:44:35.960Z,18.60
2019-01-06T17:47:16.067Z,13.88
2019-01-06T17:50:03.352Z,13.03
2019-01-06T17:52:35.916Z,13.68
2019-01-06T17:55:05.586Z,14.58
2019-01-06T17:57:42.713Z,14.93
2019-01-06T18:00:14.183Z,13.38
2019-01-06T18:03:00.589Z,14.70
2019-01-06T18:05:38.005Z,13.08
2019-01-06T18:08:13.588Z,13.32
2019-01-06T18:11:00.892Z,16.27
2019-01-06T18:13:48.418Z,16.57
2019-01-06T18:16:31.894Z,15.38
2019-01-06T18:19:12.465Z,11.75
2019-01-06T18:21:59.924Z,14.80
2019-01-06T18:24:47.841Z,14.45
2019-01-06T18:27:20.729Z,14.03
2019-01-06T18:29:58.021Z,12.53
2019-01-06T18:32:42.631Z,15.68
2019-01-06T18:35:30.104Z,18.95
2019-01-06T18:38:05.420Z,13.72
2019-01-06T18:40:36.791Z,14.87
2019-01-06T18:43:14.101Z,17.27
2019-01-06T18:45:54.185Z,15.30
2019-01-06T18:48:23.748Z,17.02
2019-01-06T18:50:55.115Z,12.30
2019-01-06T18:53:33.808Z,19.02
2019-01-06T18:56:10.994Z,19.50
2019-01-06T18:58:58.644Z,14.85
2019-01-06T19:01:30.076Z,15.35
2019-01-06T19:04:11.940Z,16.12
2019-01-06T19:06:50.372Z,15.48
2019-01-06T19:09:21.737Z,16.27
2019-01-06T19:12:04.955Z,19.32
2019-01-06T19:14:36.331Z,15.68
2019-01-06T19:17:24.239Z,14.65
2019-01-06T19:20:11.872Z,14.60
2019-01-06T19:22:59.570Z,15.15
2019-01-06T19:25:34.911Z,14.47
2019-01-06T19:28:06.345Z,16.12
2019-01-06T19:30:46.616Z,12.25
2019-01-06T19:33:20.737Z,11.28
2019-01-06T19:36:07.845Z,15.08
2019-01-06T19:38:47.873Z,13.55
2019-01-06T19:41:35.345Z,14.75
2019-01-06T19:44:09.377Z,9.33
2019-01-06T19:46:56.545Z,11.40
2019-01-06T19:49:30.950Z,14.95
2019-01-06T19:52:18.658Z,10.93
2019-01-06T19:55:06.030Z,14.00
2019-01-06T19:57:35.626Z,20.08
2019-01-06T20:00:09.961Z,14.60
2019-01-06T20:02:50.404Z,15.88
2019-01-06T20:05:38.125Z,13.30
2019-01-06T20:08:16.569Z,14.93
2019-01-06T20:11:02.962Z,15.48
2019-01-06T20:13:36.951Z,15.38
2019-01-06T20:16:08.308Z,15.50
2019-01-06T20:18:39.699Z,10.82
2019-01-06T20:21:26.221Z,13.93
2019-01-06T20:23:55.811Z,17.45
2019-01-06T20:26:30.200Z,12.43
2019-01-06T20:29:10.785Z,12.15
2019-01-06T20:31:44.985Z,18.37
2019-01-06T20:34:19.401Z,15.28
2019-01-06T20:37:07.196Z,20.95
2019-01-06T20:39:54.515Z,15.35
2019-01-06T20:42:26.003Z,19.12
2019-01-06T20:45:13.438Z,16.70
2019-01-06T20:47:45.548Z,15.88
2019-01-06T20:50:32.899Z,12.88
2019-01-06T20:53:20.012Z,16.82
2019-01-06T20:55:51.386Z,10.80
2019-01-06T20:58:28.645Z,18.30
2019-01-06T21:01:06.990Z,13.10
2019-01-06T21:03:50.463Z,19.40
2019-01-06T21:06:24.843Z,17.07
2019-01-06T21:09:12.505Z,20.02
2019-01-06T21:12:00.194Z,14.10
2019-01-06T21:14:47.409Z,14.80
2019-01-06T21:17:33.931Z,17.40
2019-01-06T21:20:21.423Z,16.75
2019-01-06T21:23:05.003Z,15.18
2019-01-06T21:25:52.567Z,18.62
2019-01-06T21:28:29.790Z,19.95
2019-01-06T21:31:12.926Z,15.83
2019-01-06T21:33:47.127Z,16.70
2019-01-06T21:36:19.519Z,13.50
2019-01-06T21:39:02.881Z,18.77
2019-01-06T21:41:35.167Z,12.25
2019-01-06T21:44:18.288Z,16.65
2019-01-06T21:46:53.492Z,15.90
2019-01-06T21:49:27.721Z,13.65
2019-01-06T21:52:04.957Z,14.00
2019-01-06T21:54:51.789Z,16.37
2019-01-06T21:57:23.176Z,16.42
2019-01-06T22:00:01.640Z,21.97
2019-01-06T22:02:39.009Z,15.70
2019-01-06T22:05:16.204Z,14.70
2019-01-06T22:07:47.598Z,14.55
2019-01-06T22:10:35.101Z,20.15
2019-01-06T22:13:22.416Z,16.17
2019-01-06T22:15:53.850Z,18.07
2019-01-06T22:18:41.339Z,25.15
2019-01-06T22:21:16.842Z,15.78
2019-01-06T22:23:54.094Z,20.45
2019-01-06T22:26:41.661Z,16.17
2019-01-06T22:29:13.991Z,19.50
2019-01-06T22:31:49.172Z,16.25
2019-01-06T22:34:29.321Z,14.83
2019-01-06T22:37:16.636Z,14.00
2019-01-06T22:40:04.223Z,19.35
2019-01-06T22:42:51.930Z,20.57
2019-01-06T22:45:39.549Z,18.60
2019-01-06T22:48:23.017Z,16.93
2019-01-06T22:50:57.238Z,17.90
2019-01-06T22:53:28.608Z,16.07
2019-01-06T22:56:16.199Z,16.30
2019-01-06T22:58:53.476Z,19.12
2019-01-06T23:01:25.544Z,23.22
2019-01-06T23:04:15.426Z,19.52
2019-01-06T23:06:46.822Z,19.82
2019-01-06T23:09:34.392Z,17.62
2019-01-06T23:12:22.100Z,16.93
2019-01-06T23:15:06.702Z,27.95
2019-01-06T23:17:56.259Z,21.70
2019-01-06T23:20:30.481Z,16.20
2019-01-06T23:23:00.018Z,15.45
2019-01-06T23:25:40.526Z,18.52
2019-01-06T23:28:14.607Z,19.73
2019-01-06T23:30:48.878Z,16.17
2019-01-06T23:33:36.341Z,19.37
2019-01-06T23:36:11.697Z,16.93
2019-01-06T23:38:58.969Z,15.15
2019-01-06T23:41:30.369Z,16.93
2019-01-06T23:44:17.690Z,20.32
2019-01-06T23:47:05.222Z,17.87
2019-01-06T23:49:48.532Z,22.48
2019-01-06T23:52:38.007Z,23.30
2019-01-06T23:55:15.025Z,20.25
2019-01-06T23:57:48.994Z,18.95
